Time;durP1;ratioP1;P1;durP2;ratioP2;P2;SDS_P1;SDS_P2;PMS_P1;PMS_P2;Temp;Humidity;BMP_temperature;BMP_pressure;BME280_temperature;BME280_humidity;BME280_pressure;Samples;Min_cycle;Max_cycle;Signal;HPM_P1;HPM_P2
2021/03/04 00:02:21;;;;;;;1.05;0.95;;;;;;;;;;5051060;28;20221;-77
2021/03/04 00:04:47;;;;;;;0.65;0.65;;;;;;;;;;5049521;28;20158;-76
2021/03/04 00:07:14;;;;;;;1.35;1.17;;;;;;;;;;5051299;28;20169;-75
2021/03/04 00:09:40;;;;;;;1.40;0.75;;;;;;;;;;5049324;28;20197;-76
2021/03/04 00:12:06;;;;;;;0.73;0.73;;;;;;;;;;5049286;28;20201;-76
2021/03/04 00:14:32;;;;;;;0.20;0.20;;;;;;;;;;5049457;28;20165;-76
2021/03/04 00:16:59;;;;;;;2.65;2.45;;;;;;;;;;5049441;28;20203;-77
2021/03/04 00:19:25;;;;;;;0.35;0.35;;;;;;;;;;5049317;28;20196;-77
2021/03/04 00:21:51;;;;;;;4.90;1.98;;;;;;;;;;5049434;28;20207;-77
2021/03/04 00:24:18;;;;;;;0.20;0.15;;;;;;;;;;5048966;28;20192;-77
2021/03/04 00:26:44;;;;;;;0.20;0.20;;;;;;;;;;5048043;28;20180;-77
2021/03/04 00:29:13;;;;;;;1.95;0.80;;;;;;;;;;5049934;28;20623;-77
2021/03/04 00:31:40;;;;;;;0.47;0.47;;;;;;;;;;5049677;28;20183;-77
2021/03/04 00:34:06;;;;;;;0.75;0.75;;;;;;;;;;5049800;28;20189;-76
2021/03/04 00:36:32;;;;;;;0.88;0.85;;;;;;;;;;5048527;28;20185;-78
2021/03/04 00:38:59;;;;;;;0.47;0.47;;;;;;;;;;5049873;28;20189;-77
2021/03/04 00:41:25;;;;;;;0.30;0.30;;;;;;;;;;5049174;28;20185;-77
2021/03/04 00:43:51;;;;;;;0.15;0.15;;;;;;;;;;5049927;28;20189;-76
2021/03/04 00:46:17;;;;;;;0.75;0.75;;;;;;;;;;5048374;28;20231;-78
2021/03/04 00:48:43;;;;;;;1.67;1.58;;;;;;;;;;5048777;28;20637;-76
2021/03/04 00:51:10;;;;;;;0.17;0.17;;;;;;;;;;5048657;28;20188;-77
2021/03/04 00:53:36;;;;;;;0.95;0.75;;;;;;;;;;5049015;28;20200;-76
2021/03/04 00:56:02;;;;;;;1.23;1.23;;;;;;;;;;5047765;28;20173;-77
2021/03/04 00:58:28;;;;;;;0.63;0.63;;;;;;;;;;5047650;28;20209;-77
2021/03/04 01:00:55;;;;;;;0.40;0.40;;;;;;;;;;5047723;28;20539;-77
2021/03/04 01:03:21;;;;;;;1.65;1.65;;;;;;;;;;5047883;28;20193;-77
2021/03/04 01:05:47;;;;;;;0.20;0.20;;;;;;;;;;5049462;28;20154;-76
2021/03/04 01:08:13;;;;;;;0.55;0.55;;;;;;;;;;5047866;28;20185;-76
2021/03/04 01:10:41;;;;;;;0.30;0.30;;;;;;;;;;5049093;28;20165;-76
2021/03/04 01:13:07;;;;;;;3.83;0.95;;;;;;;;;;5048297;28;20205;-77
2021/03/04 01:15:33;;;;;;;0.93;0.93;;;;;;;;;;5048909;28;20181;-78
2021/03/04 01:18:00;;;;;;;0.65;0.65;;;;;;;;;;5048797;28;20232;-78
2021/03/04 01:20:26;;;;;;;0.17;0.17;;;;;;;;;;5048856;28;20177;-78
2021/03/04 01:22:53;;;;;;;0.50;0.50;;;;;;;;;;5048735;28;20268;-77
2021/03/04 01:25:19;;;;;;;1.05;1.00;;;;;;;;;;5048595;28;20236;-77
2021/03/04 01:27:49;;;;;;;0.10;0.10;;;;;;;;;;5047565;28;20177;-78
2021/03/04 01:30:15;;;;;;;0.17;0.17;;;;;;;;;;5050756;28;20240;-77
2021/03/04 01:32:42;;;;;;;0.57;0.57;;;;;;;;;;5051053;28;20201;-77
2021/03/04 01:35:09;;;;;;;0.43;0.43;;;;;;;;;;5052333;28;20217;-77
2021/03/04 01:37:36;;;;;;;1.95;1.02;;;;;;;;;;5051093;28;20203;-77
2021/03/04 01:40:06;;;;;;;0.10;0.10;;;;;;;;;;5052247;28;20164;-79
2021/03/04 01:42:32;;;;;;;1.52;0.80;;;;;;;;;;5052201;28;20224;-79
2021/03/04 01:44:58;;;;;;;0.45;0.45;;;;;;;;;;5052260;28;20203;-77
2021/03/04 01:47:24;;;;;;;0.77;0.77;;;;;;;;;;5050695;28;20274;-77
2021/03/04 01:49:51;;;;;;;0.38;0.38;;;;;;;;;;5051003;28;20181;-79
2021/03/04 01:52:17;;;;;;;0.98;0.98;;;;;;;;;;5052035;28;20260;-78
2021/03/04 01:54:44;;;;;;;0.55;0.52;;;;;;;;;;5052025;28;20181;-78
2021/03/04 01:57:12;;;;;;;1.23;1.23;;;;;;;;;;5050579;28;20268;-77
2021/03/04 01:59:38;;;;;;;0.32;0.32;;;;;;;;;;5051835;28;20669;-77
2021/03/04 02:02:04;;;;;;;1.55;1.10;;;;;;;;;;5051886;28;20196;-76
2021/03/04 02:04:31;;;;;;;3.42;2.20;;;;;;;;;;5051989;28;20165;-77
2021/03/04 02:07:17;;;;;;;0.20;0.20;;;;;;;;;;5050497;28;20177;-77
2021/03/04 02:09:47;;;;;;;5.63;2.00;;;;;;;;;;5043488;28;20185;-76
2021/03/04 02:12:20;;;;;;;4.40;2.60;;;;;;;;;;5050300;28;20277;-76
2021/03/04 02:14:59;;;;;;;0.88;0.85;;;;;;;;;;5051646;28;20188;-78
2021/03/04 02:17:28;;;;;;;0.88;0.88;;;;;;;;;;5051624;28;20281;-76
2021/03/04 02:19:57;;;;;;;0.80;0.80;;;;;;;;;;5050399;28;20252;-74
2021/03/04 02:22:38;;;;;;;4.75;2.42;;;;;;;;;;5051386;28;20207;-77
2021/03/04 02:25:07;;;;;;;3.28;2.60;;;;;;;;;;5050189;28;20173;-76
2021/03/04 02:27:35;;;;;;;1.08;1.05;;;;;;;;;;5050282;28;20173;-76
2021/03/04 02:30:01;;;;;;;1.60;1.55;;;;;;;;;;5050232;28;20169;-76
2021/03/04 02:32:29;;;;;;;2.50;2.30;;;;;;;;;;5051266;28;20208;-76
2021/03/04 02:34:59;;;;;;;0.32;0.32;;;;;;;;;;5051382;28;20577;-76
2021/03/04 02:37:29;;;;;;;1.65;1.55;;;;;;;;;;5051170;28;20204;-76
2021/03/04 02:39:55;;;;;;;3.58;1.05;;;;;;;;;;5051289;28;20162;-76
2021/03/04 02:42:23;;;;;;;0.52;0.52;;;;;;;;;;5051217;28;20193;-76
2021/03/04 02:44:51;;;;;;;1.13;1.10;;;;;;;;;;5051382;28;20154;-76
2021/03/04 02:47:18;;;;;;;2.38;2.10;;;;;;;;;;5050849;28;20727;-76
2021/03/04 02:49:47;;;;;;;1.30;1.27;;;;;;;;;;5051150;28;20165;-76
2021/03/04 02:52:14;;;;;;;2.63;2.38;;;;;;;;;;5051067;28;20283;-76
2021/03/04 02:54:42;;;;;;;1.63;1.52;;;;;;;;;;5049631;28;20182;-77
2021/03/04 02:57:09;;;;;;;2.53;1.65;;;;;;;;;;5050877;28;20191;-77
2021/03/04 02:59:40;;;;;;;6.35;1.85;;;;;;;;;;5050858;28;20162;-76
2021/03/04 03:02:07;;;;;;;0.50;0.50;;;;;;;;;;5049486;28;20193;-76
2021/03/04 03:04:35;;;;;;;1.75;1.65;;;;;;;;;;5049422;28;20166;-77
2021/03/04 03:07:03;;;;;;;0.80;0.55;;;;;;;;;;5049542;28;20168;-77
2021/03/04 03:09:29;;;;;;;0.80;0.80;;;;;;;;;;5049287;28;20169;-76
2021/03/04 03:11:55;;;;;;;1.75;1.65;;;;;;;;;;5048907;28;20200;-77
2021/03/04 03:14:22;;;;;;;1.17;1.08;;;;;;;;;;5050126;28;20164;-78
2021/03/04 03:16:48;;;;;;;0.55;0.55;;;;;;;;;;5049176;28;20173;-77
2021/03/04 03:19:15;;;;;;;2.50;1.60;;;;;;;;;;5050505;28;20169;-76
2021/03/04 03:21:41;;;;;;;0.50;0.50;;;;;;;;;;5050448;28;20165;-77
2021/03/04 03:24:07;;;;;;;1.10;1.10;;;;;;;;;;5049019;28;20201;-77
2021/03/04 03:26:34;;;;;;;3.53;3.33;;;;;;;;;;5050326;28;20176;-77
2021/03/04 03:29:01;;;;;;;0.70;0.70;;;;;;;;;;5049066;28;20175;-77
2021/03/04 03:31:28;;;;;;;0.95;0.95;;;;;;;;;;5048945;28;20549;-77
2021/03/04 03:33:54;;;;;;;1.20;1.20;;;;;;;;;;5049801;28;20705;-77
2021/03/04 03:36:22;;;;;;;0.55;0.43;;;;;;;;;;5050252;28;20241;-78
2021/03/04 03:38:49;;;;;;;0.82;0.70;;;;;;;;;;5049453;28;20452;-77
2021/03/04 03:41:18;;;;;;;2.15;1.80;;;;;;;;;;5049844;28;20188;-76
2021/03/04 03:43:44;;;;;;;1.33;1.23;;;;;;;;;;5048622;28;20807;-77
2021/03/04 03:46:11;;;;;;;2.38;1.90;;;;;;;;;;5049695;28;20229;-76
2021/03/04 03:48:38;;;;;;;1.52;1.45;;;;;;;;;;5048387;28;20256;-77
2021/03/04 03:51:04;;;;;;;7.32;2.60;;;;;;;;;;5049796;28;20173;-77
2021/03/04 03:53:32;;;;;;;0.55;0.55;;;;;;;;;;5049275;28;20197;-77
2021/03/04 03:55:58;;;;;;;3.70;2.08;;;;;;;;;;5048476;28;20199;-77
2021/03/04 03:58:27;;;;;;;1.35;1.35;;;;;;;;;;5048420;28;20197;-77
2021/03/04 04:00:54;;;;;;;1.10;1.10;;;;;;;;;;5049662;28;20162;-77
2021/03/04 04:03:21;;;;;;;1.45;1.23;;;;;;;;;;5049210;28;20189;-77
2021/03/04 04:05:47;;;;;;;1.55;1.45;;;;;;;;;;5049574;28;20173;-79
2021/03/04 04:08:14;;;;;;;1.67;1.58;;;;;;;;;;5048044;28;20203;-77
2021/03/04 04:10:41;;;;;;;0.63;0.63;;;;;;;;;;5048085;28;20177;-78
2021/03/04 04:13:07;;;;;;;0.80;0.80;;;;;;;;;;5049430;28;20185;-77
2021/03/04 04:15:33;;;;;;;6.85;2.60;;;;;;;;;;5048113;28;20173;-76
2021/03/04 04:18:01;;;;;;;0.25;0.25;;;;;;;;;;5048129;28;20536;-77
2021/03/04 04:20:27;;;;;;;1.40;1.30;;;;;;;;;;5049294;28;20532;-76
2021/03/04 04:22:54;;;;;;;1.40;0.90;;;;;;;;;;5049444;28;20193;-77
2021/03/04 04:25:21;;;;;;;2.45;2.25;;;;;;;;;;5049153;28;20165;-77
2021/03/04 04:27:51;;;;;;;1.80;1.23;;;;;;;;;;5049213;28;20166;-77
2021/03/04 04:30:18;;;;;;;0.98;0.98;;;;;;;;;;5047891;28;20260;-77
2021/03/04 04:32:44;;;;;;;0.80;0.80;;;;;;;;;;5049193;28;20548;-78
2021/03/04 04:35:12;;;;;;;0.95;0.35;;;;;;;;;;5049363;28;20161;-76
2021/03/04 04:37:38;;;;;;;0.28;0.28;;;;;;;;;;5048361;28;20220;-77
2021/03/04 04:40:06;;;;;;;1.85;1.48;;;;;;;;;;5049071;28;20161;-76
2021/03/04 04:42:32;;;;;;;1.20;0.98;;;;;;;;;;5048923;28;20189;-75
2021/03/04 04:44:58;;;;;;;0.80;0.80;;;;;;;;;;5049084;28;20220;-75
2021/03/04 04:47:24;;;;;;;1.35;1.27;;;;;;;;;;5047460;28;20235;-75
2021/03/04 04:49:51;;;;;;;0.98;0.98;;;;;;;;;;5048910;28;20177;-76
2021/03/04 04:52:17;;;;;;;0.13;0.13;;;;;;;;;;5047599;28;20578;-76
2021/03/04 04:54:43;;;;;;;0.20;0.20;;;;;;;;;;5047447;28;20177;-76
2021/03/04 04:57:09;;;;;;;0.38;0.38;;;;;;;;;;5048838;28;20185;-76
2021/03/04 04:59:35;;;;;;;0.45;0.45;;;;;;;;;;5047486;28;20550;-76
2021/03/04 05:02:02;;;;;;;0.30;0.30;;;;;;;;;;5048561;28;20162;-77
2021/03/04 05:04:29;;;;;;;0.73;0.73;;;;;;;;;;5049219;28;20161;-76
2021/03/04 05:06:55;;;;;;;1.25;1.23;;;;;;;;;;5052729;28;20669;-77
2021/03/04 05:09:21;;;;;;;0.75;0.75;;;;;;;;;;5051576;28;20169;-77
2021/03/04 05:11:47;;;;;;;2.83;1.95;;;;;;;;;;5051239;28;20189;-77
2021/03/04 05:14:13;;;;;;;0.60;0.60;;;;;;;;;;5052566;28;20164;-76
2021/03/04 05:16:40;;;;;;;1.92;1.83;;;;;;;;;;5052527;28;20177;-76
2021/03/04 05:19:06;;;;;;;1.98;0.88;;;;;;;;;;5052786;28;20193;-76
2021/03/04 05:21:32;;;;;;;0.70;0.43;;;;;;;;;;5054594;28;20501;-75
2021/03/04 05:23:59;;;;;;;1.98;1.88;;;;;;;;;;5055000;28;20204;-76
2021/03/04 05:26:25;;;;;;;0.32;0.32;;;;;;;;;;5051660;28;20169;-77
2021/03/04 05:28:51;;;;;;;1.27;0.55;;;;;;;;;;5052767;28;20162;-75
2021/03/04 05:31:17;;;;;;;0.88;0.77;;;;;;;;;;5053043;28;20172;-75
2021/03/04 05:33:44;;;;;;;0.73;0.73;;;;;;;;;;5052953;28;20205;-76
2021/03/04 05:36:10;;;;;;;0.08;0.08;;;;;;;;;;5051997;28;20189;-75
2021/03/04 05:38:36;;;;;;;0.70;0.70;;;;;;;;;;5052593;28;20193;-75
2021/03/04 05:41:03;;;;;;;2.15;2.05;;;;;;;;;;5051236;28;20170;-75
2021/03/04 05:43:29;;;;;;;1.23;1.13;;;;;;;;;;5050903;28;20197;-75
2021/03/04 05:45:57;;;;;;;0.30;0.30;;;;;;;;;;5051676;28;20240;-75
2021/03/04 05:48:23;;;;;;;0.00;0.00;;;;;;;;;;5052231;28;20177;-75
2021/03/04 05:50:50;;;;;;;1.35;1.33;;;;;;;;;;5051738;28;20170;-75
2021/03/04 05:53:19;;;;;;;3.33;0.88;;;;;;;;;;5051904;28;20235;-75
2021/03/04 05:55:46;;;;;;;0.77;0.75;;;;;;;;;;5051010;28;20200;-75
2021/03/04 05:58:13;;;;;;;1.38;1.38;;;;;;;;;;5052354;28;20214;-76
2021/03/04 06:00:41;;;;;;;0.85;0.85;;;;;;;;;;5051560;28;20188;-75
2021/03/04 06:03:08;;;;;;;2.90;1.20;;;;;;;;;;5052186;28;20189;-76
2021/03/04 06:05:34;;;;;;;1.02;0.98;;;;;;;;;;5050641;28;20257;-77
2021/03/04 06:08:04;;;;;;;3.10;2.88;;;;;;;;;;5050539;28;20187;-76
2021/03/04 06:10:31;;;;;;;0.40;0.40;;;;;;;;;;5051180;28;20176;-75
2021/03/04 06:12:58;;;;;;;1.45;1.38;;;;;;;;;;5051725;28;20193;-80
2021/03/04 06:15:24;;;;;;;0.55;0.55;;;;;;;;;;5049952;28;20250;-81
2021/03/04 06:17:54;;;;;;;0.00;0.00;;;;;;;;;;5050690;28;20209;-80
2021/03/04 06:20:20;;;;;;;0.30;0.30;;;;;;;;;;5051911;28;20177;-77
2021/03/04 06:22:47;;;;;;;0.28;0.28;;;;;;;;;;5052087;28;20193;-77
2021/03/04 06:25:14;;;;;;;0.63;0.63;;;;;;;;;;5051099;28;20184;-76
2021/03/04 06:27:46;;;;;;;2.50;1.48;;;;;;;;;;5051689;28;20165;-77
2021/03/04 06:30:14;;;;;;;0.10;0.10;;;;;;;;;;5050541;28;20170;-76
2021/03/04 06:32:41;;;;;;;2.83;1.92;;;;;;;;;;5051285;28;20193;-77
2021/03/04 06:35:12;;;;;;;1.23;1.23;;;;;;;;;;5051566;28;20162;-76
2021/03/04 06:37:42;;;;;;;1.95;1.85;;;;;;;;;;5036357;28;20331;-76
2021/03/04 06:40:28;;;;;;;0.75;0.70;;;;;;;;;;5032275;28;20208;-76
2021/03/04 06:42:55;;;;;;;0.10;0.10;;;;;;;;;;5029407;28;20237;-77
2021/03/04 06:45:24;;;;;;;2.50;2.35;;;;;;;;;;5029579;28;20186;-76
2021/03/04 06:47:50;;;;;;;0.30;0.30;;;;;;;;;;5029635;28;20315;-76
2021/03/04 06:50:23;;;;;;;1.63;1.52;;;;;;;;;;5030628;28;20166;-76
2021/03/04 06:52:50;;;;;;;1.63;0.93;;;;;;;;;;5029622;28;20254;-75
2021/03/04 06:55:16;;;;;;;1.20;1.13;;;;;;;;;;5030750;28;20197;-77
2021/03/04 06:57:58;;;;;;;1.08;0.95;;;;;;;;;;5029817;28;20201;-75
2021/03/04 07:00:24;;;;;;;0.28;0.28;;;;;;;;;;5030780;28;21926;-75
2021/03/04 07:02:54;;;;;;;2.30;2.20;;;;;;;;;;5028986;28;20182;-75
2021/03/04 07:05:21;;;;;;;1.55;1.45;;;;;;;;;;5030658;28;20226;-75
2021/03/04 07:07:54;;;;;;;1.70;1.60;;;;;;;;;;5028988;28;20162;-76
2021/03/04 07:10:21;;;;;;;1.75;1.55;;;;;;;;;;5029969;28;20234;-76
2021/03/04 07:12:48;;;;;;;0.95;0.95;;;;;;;;;;5029203;28;20173;-76
2021/03/04 07:15:19;;;;;;;0.82;0.82;;;;;;;;;;5029020;28;20222;-76
2021/03/04 07:17:47;;;;;;;1.42;1.38;;;;;;;;;;5030366;28;20221;-76
2021/03/04 07:20:15;;;;;;;0.60;0.60;;;;;;;;;;5039632;28;20253;-76
2021/03/04 07:22:44;;;;;;;1.33;1.23;;;;;;;;;;5050107;28;20184;-76
2021/03/04 07:25:11;;;;;;;0.30;0.30;;;;;;;;;;5050022;28;20262;-75
2021/03/04 07:27:38;;;;;;;0.85;0.85;;;;;;;;;;5049109;28;20173;-76
2021/03/04 07:30:05;;;;;;;1.02;0.98;;;;;;;;;;5049980;28;20233;-77
2021/03/04 07:32:31;;;;;;;3.03;2.67;;;;;;;;;;5048849;28;20176;-76
2021/03/04 07:34:58;;;;;;;0.73;0.73;;;;;;;;;;5050007;28;20192;-77
2021/03/04 07:37:24;;;;;;;9.27;2.05;;;;;;;;;;5049947;28;20193;-75
2021/03/04 07:39:57;;;;;;;0.52;0.52;;;;;;;;;;5049686;28;20173;-76
2021/03/04 07:42:24;;;;;;;1.08;0.90;;;;;;;;;;5049663;28;20194;-76
2021/03/04 07:44:50;;;;;;;4.13;2.13;;;;;;;;;;5048703;28;20228;-76
2021/03/04 07:47:26;;;;;;;2.70;2.50;;;;;;;;;;5050072;28;20221;-77
2021/03/04 07:49:53;;;;;;;2.17;2.08;;;;;;;;;;5049977;28;20161;-77
2021/03/04 07:52:20;;;;;;;7.45;2.78;;;;;;;;;;5049766;28;20185;-77
2021/03/04 07:54:48;;;;;;;1.65;1.55;;;;;;;;;;5048266;28;20173;-78
2021/03/04 07:57:18;;;;;;;1.17;0.75;;;;;;;;;;5049775;28;20258;-76
2021/03/04 07:59:53;;;;;;;2.00;1.85;;;;;;;;;;5049541;28;20166;-77
2021/03/04 08:02:22;;;;;;;3.72;2.28;;;;;;;;;;5049325;28;20208;-77
2021/03/04 08:04:49;;;;;;;3.85;2.53;;;;;;;;;;5041410;28;20240;-79
2021/03/04 08:07:23;;;;;;;1.55;1.17;;;;;;;;;;5029135;28;20193;-77
2021/03/04 08:09:49;;;;;;;8.98;3.60;;;;;;;;;;5028256;28;20203;-78
2021/03/04 08:12:16;;;;;;;2.38;2.17;;;;;;;;;;5027994;28;20194;-79
2021/03/04 08:14:53;;;;;;;4.22;1.80;;;;;;;;;;5029465;28;20197;-76
2021/03/04 08:17:20;;;;;;;3.10;1.63;;;;;;;;;;5029098;28;20204;-78
2021/03/04 08:19:47;;;;;;;1.20;1.20;;;;;;;;;;5029784;28;20162;-78
2021/03/04 08:22:17;;;;;;;0.75;0.75;;;;;;;;;;5029313;28;20251;-77
2021/03/04 08:24:43;;;;;;;5.00;2.25;;;;;;;;;;5028155;28;20205;-78
2021/03/04 08:27:10;;;;;;;0.98;0.98;;;;;;;;;;5028245;28;20185;-78
2021/03/04 08:29:45;;;;;;;2.20;2.10;;;;;;;;;;5029152;28;20158;-77
2021/03/04 08:32:13;;;;;;;3.70;2.08;;;;;;;;;;5027895;28;20224;-76
2021/03/04 08:34:40;;;;;;;2.63;2.42;;;;;;;;;;5038619;28;20177;-75
2021/03/04 08:37:07;;;;;;;6.53;1.80;;;;;;;;;;5046064;28;20641;-77
2021/03/04 08:39:34;;;;;;;0.30;0.30;;;;;;;;;;5045207;28;20197;-76
2021/03/04 08:42:04;;;;;;;1.88;1.40;;;;;;;;;;5045003;28;20197;-77
2021/03/04 08:44:31;;;;;;;0.60;0.60;;;;;;;;;;5046964;28;20154;-77
2021/03/04 08:46:57;;;;;;;1.77;1.05;;;;;;;;;;5044005;28;20233;-75
2021/03/04 08:49:23;;;;;;;1.02;1.00;;;;;;;;;;5046767;28;20175;-76
2021/03/04 08:51:50;;;;;;;1.23;1.23;;;;;;;;;;5045932;28;20193;-77
2021/03/04 08:54:23;;;;;;;5.00;1.20;;;;;;;;;;5046955;28;20173;-76
2021/03/04 08:56:54;;;;;;;1.25;1.17;;;;;;;;;;5047720;28;20173;-76
2021/03/04 08:59:21;;;;;;;7.45;3.05;;;;;;;;;;5047276;28;20179;-77
2021/03/04 09:01:47;;;;;;;0.85;0.85;;;;;;;;;;5047170;28;20263;-76
2021/03/04 09:04:20;;;;;;;0.55;0.50;;;;;;;;;;5048916;28;20191;-76
2021/03/04 09:06:46;;;;;;;1.45;0.85;;;;;;;;;;5048520;28;20215;-76
2021/03/04 09:09:26;;;;;;;1.67;1.13;;;;;;;;;;5047457;28;20170;-76
2021/03/04 09:11:53;;;;;;;1.27;1.05;;;;;;;;;;5047140;28;20192;-77
2021/03/04 09:14:25;;;;;;;1.25;1.15;;;;;;;;;;5048395;28;20157;-75
2021/03/04 09:16:51;;;;;;;0.60;0.52;;;;;;;;;;5048419;28;20162;-76
2021/03/04 09:19:27;;;;;;;2.25;1.88;;;;;;;;;;5045838;28;20197;-76
2021/03/04 09:21:54;;;;;;;1.33;0.77;;;;;;;;;;5047161;28;20212;-77
2021/03/04 09:24:20;;;;;;;3.67;1.48;;;;;;;;;;5046807;28;20158;-76
2021/03/04 09:26:46;;;;;;;0.73;0.73;;;;;;;;;;5048273;28;20162;-76
2021/03/04 09:29:13;;;;;;;0.75;0.68;;;;;;;;;;5047409;28;20181;-76
2021/03/04 09:31:49;;;;;;;3.35;0.60;;;;;;;;;;5047943;28;20193;-75
2021/03/04 09:34:15;;;;;;;1.00;0.63;;;;;;;;;;5048272;28;20170;-76
2021/03/04 09:36:41;;;;;;;0.80;0.75;;;;;;;;;;5048206;28;20185;-77
2021/03/04 09:39:07;;;;;;;1.45;1.15;;;;;;;;;;5047953;28;20205;-75
2021/03/04 09:41:33;;;;;;;0.80;0.52;;;;;;;;;;5045783;28;20198;-76
2021/03/04 09:44:06;;;;;;;1.23;0.47;;;;;;;;;;5047980;28;20158;-76
2021/03/04 09:46:34;;;;;;;0.75;0.75;;;;;;;;;;5046796;28;20171;-76
2021/03/04 09:49:06;;;;;;;1.42;0.65;;;;;;;;;;5047809;28;20221;-78
2021/03/04 09:51:34;;;;;;;2.10;1.42;;;;;;;;;;5047560;28;20193;-76
2021/03/04 09:54:00;;;;;;;0.40;0.40;;;;;;;;;;5050435;28;20177;-76
2021/03/04 09:56:26;;;;;;;1.23;1.17;;;;;;;;;;5051558;28;20166;-76
2021/03/04 09:58:52;;;;;;;1.20;0.88;;;;;;;;;;5049953;28;20222;-76
2021/03/04 10:01:32;;;;;;;0.40;0.40;;;;;;;;;;5049763;28;20198;-76
2021/03/04 10:04:08;;;;;;;1.58;0.68;;;;;;;;;;5050880;28;20164;-73
2021/03/04 10:06:35;;;;;;;1.75;1.30;;;;;;;;;;5050108;28;20223;-73
2021/03/04 10:09:01;;;;;;;1.85;1.75;;;;;;;;;;5051179;28;20179;-75
2021/03/04 10:11:28;;;;;;;2.63;2.47;;;;;;;;;;5048555;28;20197;-76
2021/03/04 10:13:55;;;;;;;0.38;0.38;;;;;;;;;;5050410;28;20250;-75
2021/03/04 10:16:21;;;;;;;2.38;2.22;;;;;;;;;;5052723;28;20161;-75
2021/03/04 10:18:51;;;;;;;0.75;0.75;;;;;;;;;;5052110;28;20193;-76
2021/03/04 10:21:20;;;;;;;0.28;0.28;;;;;;;;;;5051067;28;20189;-77
2021/03/04 10:23:47;;;;;;;0.77;0.77;;;;;;;;;;5050916;28;20193;-77
2021/03/04 10:26:14;;;;;;;0.32;0.32;;;;;;;;;;5051061;28;20183;-76
2021/03/04 10:28:40;;;;;;;1.92;1.80;;;;;;;;;;5049780;28;20232;-76
2021/03/04 10:31:06;;;;;;;2.72;1.08;;;;;;;;;;5050670;28;20197;-78
2021/03/04 10:33:33;;;;;;;1.15;1.05;;;;;;;;;;5050832;28;20188;-76
2021/03/04 10:35:59;;;;;;;3.92;0.70;;;;;;;;;;5049591;28;20530;-76
2021/03/04 10:38:25;;;;;;;1.10;1.10;;;;;;;;;;5049928;28;20223;-77
2021/03/04 10:40:51;;;;;;;1.55;1.25;;;;;;;;;;5051154;28;20220;-77
2021/03/04 10:43:18;;;;;;;0.52;0.52;;;;;;;;;;5050817;28;20161;-78
2021/03/04 10:45:44;;;;;;;0.68;0.68;;;;;;;;;;5049750;28;20680;-78
2021/03/04 10:48:11;;;;;;;2.28;1.42;;;;;;;;;;5049270;28;20651;-78
2021/03/04 10:50:38;;;;;;;0.38;0.38;;;;;;;;;;5050476;28;20195;-76
2021/03/04 10:53:04;;;;;;;0.75;0.75;;;;;;;;;;5050375;28;20197;-77
2021/03/04 10:55:30;;;;;;;1.75;1.65;;;;;;;;;;5048908;28;20169;-76
2021/03/04 10:57:57;;;;;;;0.60;0.60;;;;;;;;;;5048241;28;20208;-76
2021/03/04 11:00:23;;;;;;;0.77;0.77;;;;;;;;;;5050260;28;20256;-77
2021/03/04 11:02:50;;;;;;;2.55;0.65;;;;;;;;;;5047966;28;20162;-77
2021/03/04 11:05:17;;;;;;;1.27;1.10;;;;;;;;;;5050150;28;20174;-77
2021/03/04 11:07:45;;;;;;;2.58;0.65;;;;;;;;;;5048088;28;20162;-76
2021/03/04 11:10:11;;;;;;;3.25;1.40;;;;;;;;;;5049062;28;20249;-76
2021/03/04 11:12:38;;;;;;;1.17;1.10;;;;;;;;;;5050207;28;20168;-76
2021/03/04 11:15:05;;;;;;;2.35;1.88;;;;;;;;;;5050142;28;20196;-77
2021/03/04 11:17:31;;;;;;;1.42;1.27;;;;;;;;;;5049314;28;20201;-76
2021/03/04 11:19:57;;;;;;;2.63;1.52;;;;;;;;;;5049915;28;20242;-76
2021/03/04 11:22:23;;;;;;;0.73;0.68;;;;;;;;;;5050001;28;20196;-75
2021/03/04 11:24:49;;;;;;;3.30;2.08;;;;;;;;;;5049785;28;20162;-76
2021/03/04 11:27:16;;;;;;;0.40;0.40;;;;;;;;;;5049639;28;20167;-75
2021/03/04 11:29:43;;;;;;;0.95;0.65;;;;;;;;;;5049021;28;20188;-75
2021/03/04 11:32:09;;;;;;;0.20;0.20;;;;;;;;;;5049459;28;20197;-75
2021/03/04 11:34:35;;;;;;;0.45;0.45;;;;;;;;;;5048451;28;20170;-76
2021/03/04 11:37:02;;;;;;;0.40;0.40;;;;;;;;;;5049601;28;20187;-75
2021/03/04 11:39:28;;;;;;;30.15;2.38;;;;;;;;;;5047427;28;20176;-75
2021/03/04 11:41:54;;;;;;;0.90;0.90;;;;;;;;;;5048318;28;20189;-77
2021/03/04 11:44:21;;;;;;;0.28;0.28;;;;;;;;;;5049633;28;20154;-76
2021/03/04 11:46:47;;;;;;;0.75;0.50;;;;;;;;;;5048502;28;20736;-77
2021/03/04 11:49:13;;;;;;;1.95;1.83;;;;;;;;;;5031622;28;20193;-77
2021/03/04 11:51:39;;;;;;;2.65;2.33;;;;;;;;;;5044034;28;20231;-76
2021/03/04 11:54:05;;;;;;;0.93;0.88;;;;;;;;;;5047948;28;20205;-76
2021/03/04 11:56:32;;;;;;;3.97;1.05;;;;;;;;;;5049442;28;20166;-76
2021/03/04 11:59:02;;;;;;;0.60;0.60;;;;;;;;;;5047800;28;20212;-76
2021/03/04 12:01:28;;;;;;;0.47;0.30;;;;;;;;;;5048407;28;20186;-76
2021/03/04 12:03:54;;;;;;;2.97;1.48;;;;;;;;;;5049013;28;20501;-76
2021/03/04 12:06:21;;;;;;;2.28;1.58;;;;;;;;;;5049261;28;20200;-76
2021/03/04 12:08:47;;;;;;;0.95;0.70;;;;;;;;;;5047838;28;20182;-76
2021/03/04 12:11:13;;;;;;;3.75;1.35;;;;;;;;;;5048724;28;20243;-77
2021/03/04 12:13:40;;;;;;;1.63;1.45;;;;;;;;;;5048079;28;20189;-79
2021/03/04 12:16:08;;;;;;;2.47;1.05;;;;;;;;;;5048051;28;20578;-76
2021/03/04 12:18:34;;;;;;;0.93;0.93;;;;;;;;;;5048975;28;20185;-77
2021/03/04 12:21:00;;;;;;;4.03;0.77;;;;;;;;;;5048545;28;20189;-76
2021/03/04 12:23:27;;;;;;;1.58;1.17;;;;;;;;;;5047773;28;20157;-77
2021/03/04 12:25:54;;;;;;;5.03;1.02;;;;;;;;;;5049154;28;20166;-76
2021/03/04 12:28:20;;;;;;;2.38;0.47;;;;;;;;;;5048851;28;20224;-76
2021/03/04 12:30:46;;;;;;;0.30;0.30;;;;;;;;;;5048878;28;20193;-77
2021/03/04 12:33:13;;;;;;;0.50;0.47;;;;;;;;;;5046700;28;20176;-78
2021/03/04 12:35:40;;;;;;;2.33;1.42;;;;;;;;;;5048517;28;20276;-78
2021/03/04 12:38:06;;;;;;;3.03;1.27;;;;;;;;;;5046735;28;20669;-78
2021/03/04 12:40:34;;;;;;;3.80;1.75;;;;;;;;;;5046413;28;20259;-79
2021/03/04 12:43:01;;;;;;;0.93;0.93;;;;;;;;;;5048398;28;20161;-79
2021/03/04 12:45:28;;;;;;;1.85;1.55;;;;;;;;;;5047781;28;20158;-80
2021/03/04 12:47:54;;;;;;;0.98;0.95;;;;;;;;;;5048088;28;20217;-79
2021/03/04 12:50:20;;;;;;;0.95;0.95;;;;;;;;;;5048445;28;20223;-80
2021/03/04 12:52:47;;;;;;;1.08;0.85;;;;;;;;;;5048539;28;20165;-78
2021/03/04 12:55:13;;;;;;;2.45;0.75;;;;;;;;;;5047730;28;20173;-76
2021/03/04 12:57:40;;;;;;;0.30;0.15;;;;;;;;;;5047165;28;20193;-78
2021/03/04 13:00:07;;;;;;;0.28;0.28;;;;;;;;;;5047774;28;20715;-77
2021/03/04 13:02:34;;;;;;;2.28;1.30;;;;;;;;;;5047436;28;20193;-77
2021/03/04 13:05:00;;;;;;;1.40;0.65;;;;;;;;;;5048160;28;20690;-79
2021/03/04 13:07:27;;;;;;;9.73;1.85;;;;;;;;;;5047599;28;20166;-77
2021/03/04 13:09:53;;;;;;;0.55;0.55;;;;;;;;;;5047255;28;20536;-76
2021/03/04 13:12:19;;;;;;;0.55;0.50;;;;;;;;;;5048143;28;20198;-75
2021/03/04 13:14:46;;;;;;;0.10;0.10;;;;;;;;;;5048451;28;20176;-75
2021/03/04 13:17:12;;;;;;;0.63;0.63;;;;;;;;;;5047307;28;20165;-77
2021/03/04 13:19:38;;;;;;;8.15;0.57;;;;;;;;;;5047142;28;20181;-76
2021/03/04 13:22:05;;;;;;;1.67;1.55;;;;;;;;;;5047321;28;20201;-75
2021/03/04 13:24:31;;;;;;;1.85;0.95;;;;;;;;;;5048375;28;20161;-77
2021/03/04 13:26:57;;;;;;;0.30;0.30;;;;;;;;;;5050613;28;20158;-75
2021/03/04 13:29:23;;;;;;;0.45;0.45;;;;;;;;;;5050260;28;20166;-75
2021/03/04 13:31:49;;;;;;;0.52;0.40;;;;;;;;;;5051010;28;20230;-76
2021/03/04 13:34:15;;;;;;;0.38;0.38;;;;;;;;;;5051190;28;20201;-76
2021/03/04 13:36:42;;;;;;;9.38;0.98;;;;;;;;;;5050629;28;20173;-76
2021/03/04 13:39:09;;;;;;;0.30;0.30;;;;;;;;;;5050283;28;20193;-76
2021/03/04 13:41:35;;;;;;;0.30;0.30;;;;;;;;;;5051979;28;20250;-77
2021/03/04 13:44:02;;;;;;;1.13;0.73;;;;;;;;;;5049373;28;20269;-76
2021/03/04 13:46:28;;;;;;;0.47;0.47;;;;;;;;;;5050106;28;20181;-76
2021/03/04 13:48:54;;;;;;;10.88;0.85;;;;;;;;;;5051241;28;20231;-78
2021/03/04 13:51:21;;;;;;;0.32;0.32;;;;;;;;;;5049885;28;20236;-79
2021/03/04 13:53:48;;;;;;;0.35;0.35;;;;;;;;;;5051843;28;20649;-78
2021/03/04 13:56:14;;;;;;;0.25;0.25;;;;;;;;;;5050202;28;20166;-79
2021/03/04 13:58:40;;;;;;;0.47;0.47;;;;;;;;;;5051213;28;20195;-79
2021/03/04 14:01:08;;;;;;;0.93;0.77;;;;;;;;;;5050379;28;20197;-80
2021/03/04 14:03:36;;;;;;;0.95;0.95;;;;;;;;;;5051559;28;20157;-78
2021/03/04 14:06:02;;;;;;;0.80;0.55;;;;;;;;;;5051577;28;20149;-81
2021/03/04 14:08:29;;;;;;;0.80;0.80;;;;;;;;;;5051859;28;20520;-79
2021/03/04 14:10:55;;;;;;;8.90;1.65;;;;;;;;;;5050904;28;20212;-79
2021/03/04 14:13:21;;;;;;;0.10;0.10;;;;;;;;;;5052577;28;20598;-80
2021/03/04 14:15:47;;;;;;;8.15;0.43;;;;;;;;;;5050351;28;20161;-80
2021/03/04 14:18:13;;;;;;;1.40;1.10;;;;;;;;;;5052714;28;20193;-80
2021/03/04 14:20:39;;;;;;;0.43;0.43;;;;;;;;;;5052423;28;20185;-80
2021/03/04 14:23:06;;;;;;;0.82;0.82;;;;;;;;;;5051677;28;20166;-80
2021/03/04 14:25:32;;;;;;;0.43;0.25;;;;;;;;;;5051419;28;20172;-80
2021/03/04 14:27:58;;;;;;;0.20;0.20;;;;;;;;;;5052276;28;20241;-80
2021/03/04 14:30:24;;;;;;;0.40;0.40;;;;;;;;;;5052400;28;20170;-80
2021/03/04 14:32:50;;;;;;;3.72;1.00;;;;;;;;;;5050411;28;20196;-80
2021/03/04 14:35:17;;;;;;;0.55;0.55;;;;;;;;;;5053065;28;20264;-80
2021/03/04 14:37:43;;;;;;;0.17;0.17;;;;;;;;;;5053427;28;20556;-81
2021/03/04 14:40:10;;;;;;;0.30;0.30;;;;;;;;;;5052394;28;20161;-80
2021/03/04 14:42:37;;;;;;;0.10;0.10;;;;;;;;;;5052173;28;20227;-80
2021/03/04 14:45:05;;;;;;;11.40;0.90;;;;;;;;;;5050791;28;20175;-80